aviador You're here:

KDYB Decoded Metar

in
Report Time2018-02-19 11:55:00
UTC Time2018-02-19 12:09:03
Flight Rules lifr LIFR
WindCalm
Visibility8047 m
Phenomena:Mist
Clouds:Overcast 004 Hf
Expected CloudBase > 400 ft AGL from Temp-Dew spread
Ceiling400 ft
Temp13°C
Dew Point12°C (94% RH)
QNH1029 hPa
Raw Report
METAR KDYB 191155Z AUTO 00000KT 5SM BR OVC004 13/12 A3039 RMK AO1=

Extra information for KDYB:More info

Social comments